sensor_id;sensor_type;location;lat;lon;timestamp;P1;durP1;ratioP1;P2;durP2;ratioP2
81056;SDS011;70563;50.084;14.468;2023-06-22T00:01:18;11.32;;;6.57;;
81056;SDS011;70563;50.084;14.468;2023-06-22T00:03:43;7.40;;;5.70;;
81056;SDS011;70563;50.084;14.468;2023-06-22T00:06:09;8.65;;;6.07;;
81056;SDS011;70563;50.084;14.468;2023-06-22T00:08:34;9.95;;;5.60;;
81056;SDS011;70563;50.084;14.468;2023-06-22T00:11:00;8.35;;;5.80;;
81056;SDS011;70563;50.084;14.468;2023-06-22T00:13:25;6.35;;;4.85;;
81056;SDS011;70563;50.084;14.468;2023-06-22T00:15:51;8.20;;;5.63;;
81056;SDS011;70563;50.084;14.468;2023-06-22T00:18:16;9.05;;;5.90;;
81056;SDS011;70563;50.084;14.468;2023-06-22T00:20:41;12.48;;;6.18;;
81056;SDS011;70563;50.084;14.468;2023-06-22T00:23:07;9.70;;;5.68;;
81056;SDS011;70563;50.084;14.468;2023-06-22T00:25:38;10.43;;;6.20;;
81056;SDS011;70563;50.084;14.468;2023-06-22T00:28:07;9.55;;;6.38;;
81056;SDS011;70563;50.084;14.468;2023-06-22T00:30:33;10.45;;;5.78;;
81056;SDS011;70563;50.084;14.468;2023-06-22T00:32:59;12.75;;;6.05;;
81056;SDS011;70563;50.084;14.468;2023-06-22T00:35:25;9.55;;;6.82;;
81056;SDS011;70563;50.084;14.468;2023-06-22T00:37:58;10.23;;;5.80;;
81056;SDS011;70563;50.084;14.468;2023-06-22T00:40:29;11.13;;;6.05;;
81056;SDS011;70563;50.084;14.468;2023-06-22T00:42:56;8.82;;;5.78;;
81056;SDS011;70563;50.084;14.468;2023-06-22T00:45:22;9.75;;;5.97;;
81056;SDS011;70563;50.084;14.468;2023-06-22T00:47:49;12.05;;;6.13;;
81056;SDS011;70563;50.084;14.468;2023-06-22T00:50:20;9.38;;;6.10;;
81056;SDS011;70563;50.084;14.468;2023-06-22T00:52:51;13.65;;;6.75;;
81056;SDS011;70563;50.084;14.468;2023-06-22T00:55:18;11.13;;;6.70;;
81056;SDS011;70563;50.084;14.468;2023-06-22T00:57:45;9.55;;;6.47;;
81056;SDS011;70563;50.084;14.468;2023-06-22T01:00:11;10.43;;;6.85;;
81056;SDS011;70563;50.084;14.468;2023-06-22T01:02:44;10.32;;;6.63;;
81056;SDS011;70563;50.084;14.468;2023-06-22T01:05:11;9.68;;;6.43;;
81056;SDS011;70563;50.084;14.468;2023-06-22T01:12:54;10.25;;;6.38;;
81056;SDS011;70563;50.084;14.468;2023-06-22T01:15:45;10.55;;;6.57;;
81056;SDS011;70563;50.084;14.468;2023-06-22T01:18:14;10.25;;;7.45;;
81056;SDS011;70563;50.084;14.468;2023-06-22T01:20:42;20.50;;;7.22;;
81056;SDS011;70563;50.084;14.468;2023-06-22T01:23:20;14.07;;;6.68;;
81056;SDS011;70563;50.084;14.468;2023-06-22T01:29:14;11.80;;;6.72;;
81056;SDS011;70563;50.084;14.468;2023-06-22T01:31:42;11.75;;;7.57;;
81056;SDS011;70563;50.084;14.468;2023-06-22T01:34:09;9.65;;;7.00;;
81056;SDS011;70563;50.084;14.468;2023-06-22T01:36:37;9.93;;;6.78;;
81056;SDS011;70563;50.084;14.468;2023-06-22T01:39:04;16.15;;;7.72;;
81056;SDS011;70563;50.084;14.468;2023-06-22T01:41:37;12.32;;;8.00;;
81056;SDS011;70563;50.084;14.468;2023-06-22T01:44:05;11.85;;;7.20;;
81056;SDS011;70563;50.084;14.468;2023-06-22T01:46:33;14.90;;;7.40;;
81056;SDS011;70563;50.084;14.468;2023-06-22T01:48:59;14.40;;;7.25;;
81056;SDS011;70563;50.084;14.468;2023-06-22T01:51:27;14.18;;;8.32;;
81056;SDS011;70563;50.084;14.468;2023-06-22T01:53:52;12.05;;;7.47;;
81056;SDS011;70563;50.084;14.468;2023-06-22T01:56:17;11.18;;;7.68;;
81056;SDS011;70563;50.084;14.468;2023-06-22T01:58:48;15.00;;;8.07;;
81056;SDS011;70563;50.084;14.468;2023-06-22T02:01:35;13.57;;;7.28;;
81056;SDS011;70563;50.084;14.468;2023-06-22T02:04:11;13.13;;;8.35;;
81056;SDS011;70563;50.084;14.468;2023-06-22T02:06:43;12.50;;;8.68;;
81056;SDS011;70563;50.084;14.468;2023-06-22T02:09:13;15.13;;;8.13;;
81056;SDS011;70563;50.084;14.468;2023-06-22T02:11:42;16.17;;;9.85;;
81056;SDS011;70563;50.084;14.468;2023-06-22T02:14:10;21.00;;;11.07;;
81056;SDS011;70563;50.084;14.468;2023-06-22T02:16:37;15.60;;;9.88;;
81056;SDS011;70563;50.084;14.468;2023-06-22T02:19:03;16.50;;;10.07;;
81056;SDS011;70563;50.084;14.468;2023-06-22T02:21:31;15.38;;;8.48;;
81056;SDS011;70563;50.084;14.468;2023-06-22T02:23:57;13.75;;;8.57;;
81056;SDS011;70563;50.084;14.468;2023-06-22T02:26:23;14.13;;;9.02;;
81056;SDS011;70563;50.084;14.468;2023-06-22T02:28:50;16.40;;;8.07;;
81056;SDS011;70563;50.084;14.468;2023-06-22T02:31:16;16.10;;;8.15;;
81056;SDS011;70563;50.084;14.468;2023-06-22T02:33:41;12.90;;;8.60;;
81056;SDS011;70563;50.084;14.468;2023-06-22T02:36:06;14.15;;;8.85;;
81056;SDS011;70563;50.084;14.468;2023-06-22T02:38:34;12.50;;;7.65;;
81056;SDS011;70563;50.084;14.468;2023-06-22T02:41:01;12.57;;;8.55;;
81056;SDS011;70563;50.084;14.468;2023-06-22T02:43:27;18.40;;;9.00;;
81056;SDS011;70563;50.084;14.468;2023-06-22T02:45:52;11.55;;;7.60;;
81056;SDS011;70563;50.084;14.468;2023-06-22T02:48:18;13.55;;;7.97;;
81056;SDS011;70563;50.084;14.468;2023-06-22T02:50:43;12.38;;;7.63;;
81056;SDS011;70563;50.084;14.468;2023-06-22T02:53:09;14.65;;;8.05;;
81056;SDS011;70563;50.084;14.468;2023-06-22T02:55:34;15.63;;;7.65;;
81056;SDS011;70563;50.084;14.468;2023-06-22T02:57:59;12.18;;;7.95;;
81056;SDS011;70563;50.084;14.468;2023-06-22T03:00:29;12.00;;;7.28;;
81056;SDS011;70563;50.084;14.468;2023-06-22T03:02:55;11.15;;;7.50;;
81056;SDS011;70563;50.084;14.468;2023-06-22T03:05:22;12.50;;;7.60;;
81056;SDS011;70563;50.084;14.468;2023-06-22T03:07:48;16.20;;;8.07;;
81056;SDS011;70563;50.084;14.468;2023-06-22T03:10:13;14.45;;;7.47;;
81056;SDS011;70563;50.084;14.468;2023-06-22T03:12:40;14.32;;;9.80;;
81056;SDS011;70563;50.084;14.468;2023-06-22T03:15:06;14.57;;;8.00;;
81056;SDS011;70563;50.084;14.468;2023-06-22T03:17:35;16.42;;;8.60;;
81056;SDS011;70563;50.084;14.468;2023-06-22T03:20:03;13.23;;;8.85;;
81056;SDS011;70563;50.084;14.468;2023-06-22T03:22:37;14.80;;;8.60;;
81056;SDS011;70563;50.084;14.468;2023-06-22T03:25:06;14.13;;;9.10;;
81056;SDS011;70563;50.084;14.468;2023-06-22T03:27:35;14.48;;;8.02;;
81056;SDS011;70563;50.084;14.468;2023-06-22T03:30:04;11.20;;;8.07;;
81056;SDS011;70563;50.084;14.468;2023-06-22T03:32:32;12.43;;;8.20;;
81056;SDS011;70563;50.084;14.468;2023-06-22T03:34:57;14.20;;;8.80;;
81056;SDS011;70563;50.084;14.468;2023-06-22T03:37:24;13.85;;;7.40;;
81056;SDS011;70563;50.084;14.468;2023-06-22T03:39:50;17.30;;;8.68;;
81056;SDS011;70563;50.084;14.468;2023-06-22T03:42:16;12.10;;;6.82;;
81056;SDS011;70563;50.084;14.468;2023-06-22T03:44:41;11.75;;;8.00;;
81056;SDS011;70563;50.084;14.468;2023-06-22T03:47:07;12.80;;;8.50;;
81056;SDS011;70563;50.084;14.468;2023-06-22T03:49:33;11.43;;;7.85;;
81056;SDS011;70563;50.084;14.468;2023-06-22T03:51:59;13.63;;;7.43;;
81056;SDS011;70563;50.084;14.468;2023-06-22T03:54:25;15.82;;;8.10;;
81056;SDS011;70563;50.084;14.468;2023-06-22T03:56:51;13.88;;;8.57;;
81056;SDS011;70563;50.084;14.468;2023-06-22T03:59:16;11.75;;;7.65;;
81056;SDS011;70563;50.084;14.468;2023-06-22T04:01:41;13.82;;;7.63;;
81056;SDS011;70563;50.084;14.468;2023-06-22T04:04:07;13.57;;;8.15;;
81056;SDS011;70563;50.084;14.468;2023-06-22T04:06:32;13.05;;;7.28;;
81056;SDS011;70563;50.084;14.468;2023-06-22T04:08:59;13.13;;;8.23;;
81056;SDS011;70563;50.084;14.468;2023-06-22T04:11:25;11.55;;;7.10;;
81056;SDS011;70563;50.084;14.468;2023-06-22T04:13:51;14.00;;;8.02;;
81056;SDS011;70563;50.084;14.468;2023-06-22T04:16:16;16.98;;;8.70;;
81056;SDS011;70563;50.084;14.468;2023-06-22T04:18:41;12.10;;;8.45;;
81056;SDS011;70563;50.084;14.468;2023-06-22T04:21:07;12.52;;;8.70;;
81056;SDS011;70563;50.084;14.468;2023-06-22T04:23:32;13.00;;;8.30;;
81056;SDS011;70563;50.084;14.468;2023-06-22T04:25:58;13.45;;;8.30;;
81056;SDS011;70563;50.084;14.468;2023-06-22T04:28:24;12.00;;;7.50;;
81056;SDS011;70563;50.084;14.468;2023-06-22T04:30:50;12.00;;;8.05;;
81056;SDS011;70563;50.084;14.468;2023-06-22T04:33:15;16.75;;;8.75;;
81056;SDS011;70563;50.084;14.468;2023-06-22T04:35:44;12.13;;;9.02;;
81056;SDS011;70563;50.084;14.468;2023-06-22T04:38:11;10.52;;;8.20;;
81056;SDS011;70563;50.084;14.468;2023-06-22T04:40:38;13.85;;;8.70;;
81056;SDS011;70563;50.084;14.468;2023-06-22T04:43:04;10.70;;;8.05;;
81056;SDS011;70563;50.084;14.468;2023-06-22T04:45:31;14.52;;;7.85;;
81056;SDS011;70563;50.084;14.468;2023-06-22T04:47:56;13.18;;;7.90;;
81056;SDS011;70563;50.084;14.468;2023-06-22T04:50:22;11.65;;;7.53;;
81056;SDS011;70563;50.084;14.468;2023-06-22T04:52:48;12.05;;;7.70;;
81056;SDS011;70563;50.084;14.468;2023-06-22T04:55:14;12.25;;;7.32;;
81056;SDS011;70563;50.084;14.468;2023-06-22T04:57:46;10.57;;;6.47;;
81056;SDS011;70563;50.084;14.468;2023-06-22T05:00:23;16.90;;;7.97;;
81056;SDS011;70563;50.084;14.468;2023-06-22T05:02:48;11.50;;;6.82;;
81056;SDS011;70563;50.084;14.468;2023-06-22T05:05:14;12.02;;;7.85;;
81056;SDS011;70563;50.084;14.468;2023-06-22T05:07:41;12.68;;;7.30;;
81056;SDS011;70563;50.084;14.468;2023-06-22T05:10:09;11.95;;;7.28;;
81056;SDS011;70563;50.084;14.468;2023-06-22T05:12:37;10.05;;;7.18;;
81056;SDS011;70563;50.084;14.468;2023-06-22T05:15:03;11.82;;;7.50;;
81056;SDS011;70563;50.084;14.468;2023-06-22T05:17:29;10.35;;;8.20;;
81056;SDS011;70563;50.084;14.468;2023-06-22T05:19:54;11.88;;;7.70;;
81056;SDS011;70563;50.084;14.468;2023-06-22T05:22:20;15.00;;;7.63;;
81056;SDS011;70563;50.084;14.468;2023-06-22T05:24:45;12.00;;;9.18;;
81056;SDS011;70563;50.084;14.468;2023-06-22T05:27:11;12.02;;;7.80;;
81056;SDS011;70563;50.084;14.468;2023-06-22T05:29:37;12.50;;;7.40;;
81056;SDS011;70563;50.084;14.468;2023-06-22T05:32:03;10.90;;;8.23;;
81056;SDS011;70563;50.084;14.468;2023-06-22T05:34:28;12.77;;;7.97;;
81056;SDS011;70563;50.084;14.468;2023-06-22T05:36:54;11.82;;;7.93;;
81056;SDS011;70563;50.084;14.468;2023-06-22T05:39:19;14.32;;;8.05;;
81056;SDS011;70563;50.084;14.468;2023-06-22T05:41:45;14.80;;;9.07;;
81056;SDS011;70563;50.084;14.468;2023-06-22T05:44:11;12.23;;;7.90;;
81056;SDS011;70563;50.084;14.468;2023-06-22T05:46:36;11.05;;;7.10;;
81056;SDS011;70563;50.084;14.468;2023-06-22T05:49:02;10.35;;;7.15;;
81056;SDS011;70563;50.084;14.468;2023-06-22T05:51:27;16.88;;;7.25;;
81056;SDS011;70563;50.084;14.468;2023-06-22T05:53:53;13.82;;;8.23;;
81056;SDS011;70563;50.084;14.468;2023-06-22T05:56:18;12.82;;;8.80;;
81056;SDS011;70563;50.084;14.468;2023-06-22T05:58:44;15.02;;;8.55;;
81056;SDS011;70563;50.084;14.468;2023-06-22T06:01:09;10.90;;;8.40;;
81056;SDS011;70563;50.084;14.468;2023-06-22T06:03:35;12.32;;;7.93;;
81056;SDS011;70563;50.084;14.468;2023-06-22T06:06:06;11.63;;;8.10;;
81056;SDS011;70563;50.084;14.468;2023-06-22T06:08:32;15.73;;;8.48;;
81056;SDS011;70563;50.084;14.468;2023-06-22T06:10:57;13.90;;;8.57;;
81056;SDS011;70563;50.084;14.468;2023-06-22T06:13:23;11.98;;;8.50;;
81056;SDS011;70563;50.084;14.468;2023-06-22T06:15:48;11.35;;;8.38;;
81056;SDS011;70563;50.084;14.468;2023-06-22T06:18:16;11.93;;;8.18;;
81056;SDS011;70563;50.084;14.468;2023-06-22T06:20:42;15.05;;;9.27;;
81056;SDS011;70563;50.084;14.468;2023-06-22T06:23:07;13.52;;;9.15;;
81056;SDS011;70563;50.084;14.468;2023-06-22T06:25:33;11.48;;;8.35;;
81056;SDS011;70563;50.084;14.468;2023-06-22T06:27:58;15.27;;;8.00;;
81056;SDS011;70563;50.084;14.468;2023-06-22T06:30:24;11.35;;;8.43;;
81056;SDS011;70563;50.084;14.468;2023-06-22T06:32:49;12.95;;;9.90;;
81056;SDS011;70563;50.084;14.468;2023-06-22T06:35:15;13.27;;;8.27;;
81056;SDS011;70563;50.084;14.468;2023-06-22T06:37:42;13.43;;;9.20;;
81056;SDS011;70563;50.084;14.468;2023-06-22T06:40:09;12.25;;;9.15;;
81056;SDS011;70563;50.084;14.468;2023-06-22T06:42:39;14.45;;;9.25;;
81056;SDS011;70563;50.084;14.468;2023-06-22T06:45:18;13.95;;;8.98;;
81056;SDS011;70563;50.084;14.468;2023-06-22T06:47:45;11.77;;;8.65;;
81056;SDS011;70563;50.084;14.468;2023-06-22T06:50:11;15.27;;;9.82;;
81056;SDS011;70563;50.084;14.468;2023-06-22T06:52:37;16.98;;;8.98;;
81056;SDS011;70563;50.084;14.468;2023-06-22T06:55:02;14.88;;;8.55;;
81056;SDS011;70563;50.084;14.468;2023-06-22T06:57:33;12.88;;;8.48;;
81056;SDS011;70563;50.084;14.468;2023-06-22T06:59:58;12.40;;;8.10;;
81056;SDS011;70563;50.084;14.468;2023-06-22T07:02:25;10.27;;;7.95;;
81056;SDS011;70563;50.084;14.468;2023-06-22T07:04:52;16.15;;;7.57;;
81056;SDS011;70563;50.084;14.468;2023-06-22T07:07:20;14.10;;;7.53;;
81056;SDS011;70563;50.084;14.468;2023-06-22T07:09:45;11.48;;;7.95;;
81056;SDS011;70563;50.084;14.468;2023-06-22T07:12:11;11.25;;;7.38;;
81056;SDS011;70563;50.084;14.468;2023-06-22T07:14:36;8.80;;;7.35;;
81056;SDS011;70563;50.084;14.468;2023-06-22T07:17:01;12.65;;;7.30;;
81056;SDS011;70563;50.084;14.468;2023-06-22T07:19:27;11.25;;;7.20;;
81056;SDS011;70563;50.084;14.468;2023-06-22T07:21:53;9.45;;;6.97;;
81056;SDS011;70563;50.084;14.468;2023-06-22T07:24:22;10.68;;;7.50;;
81056;SDS011;70563;50.084;14.468;2023-06-22T07:26:48;9.60;;;7.40;;
81056;SDS011;70563;50.084;14.468;2023-06-22T07:29:15;11.25;;;6.93;;
81056;SDS011;70563;50.084;14.468;2023-06-22T07:31:45;9.95;;;7.45;;
81056;SDS011;70563;50.084;14.468;2023-06-22T07:34:11;11.57;;;7.15;;
81056;SDS011;70563;50.084;14.468;2023-06-22T07:36:37;10.90;;;7.50;;
81056;SDS011;70563;50.084;14.468;2023-06-22T07:39:02;9.80;;;6.90;;
81056;SDS011;70563;50.084;14.468;2023-06-22T07:41:29;13.75;;;6.97;;
81056;SDS011;70563;50.084;14.468;2023-06-22T07:43:54;10.80;;;6.88;;
81056;SDS011;70563;50.084;14.468;2023-06-22T07:46:20;10.18;;;6.65;;
81056;SDS011;70563;50.084;14.468;2023-06-22T07:48:45;10.63;;;7.82;;
81056;SDS011;70563;50.084;14.468;2023-06-22T07:51:10;11.10;;;7.30;;
81056;SDS011;70563;50.084;14.468;2023-06-22T07:53:40;7.90;;;6.35;;
81056;SDS011;70563;50.084;14.468;2023-06-22T07:56:06;8.82;;;7.03;;
81056;SDS011;70563;50.084;14.468;2023-06-22T07:58:32;12.20;;;7.78;;
81056;SDS011;70563;50.084;14.468;2023-06-22T08:00:58;8.55;;;6.63;;
81056;SDS011;70563;50.084;14.468;2023-06-22T08:03:23;8.57;;;6.53;;
81056;SDS011;70563;50.084;14.468;2023-06-22T08:05:49;8.13;;;6.72;;
81056;SDS011;70563;50.084;14.468;2023-06-22T08:08:14;7.85;;;6.03;;
81056;SDS011;70563;50.084;14.468;2023-06-22T08:10:40;8.60;;;6.32;;
81056;SDS011;70563;50.084;14.468;2023-06-22T08:13:07;10.82;;;6.90;;
81056;SDS011;70563;50.084;14.468;2023-06-22T08:15:33;9.70;;;6.75;;
81056;SDS011;70563;50.084;14.468;2023-06-22T08:17:58;10.05;;;6.28;;
81056;SDS011;70563;50.084;14.468;2023-06-22T08:20:25;7.35;;;6.50;;
81056;SDS011;70563;50.084;14.468;2023-06-22T08:22:52;7.47;;;6.40;;
81056;SDS011;70563;50.084;14.468;2023-06-22T08:25:19;9.00;;;6.80;;
81056;SDS011;70563;50.084;14.468;2023-06-22T08:27:45;10.05;;;6.80;;
81056;SDS011;70563;50.084;14.468;2023-06-22T08:30:12;9.88;;;6.78;;
81056;SDS011;70563;50.084;14.468;2023-06-22T08:32:37;8.43;;;6.90;;
81056;SDS011;70563;50.084;14.468;2023-06-22T08:35:03;8.63;;;6.53;;
81056;SDS011;70563;50.084;14.468;2023-06-22T08:37:29;11.13;;;6.70;;
81056;SDS011;70563;50.084;14.468;2023-06-22T08:40:00;7.78;;;6.70;;
81056;SDS011;70563;50.084;14.468;2023-06-22T08:42:28;7.30;;;5.85;;
81056;SDS011;70563;50.084;14.468;2023-06-22T08:44:54;10.95;;;6.40;;
81056;SDS011;70563;50.084;14.468;2023-06-22T08:47:20;8.13;;;7.25;;
81056;SDS011;70563;50.084;14.468;2023-06-22T08:49:46;9.43;;;6.82;;
81056;SDS011;70563;50.084;14.468;2023-06-22T08:52:12;10.10;;;6.72;;
81056;SDS011;70563;50.084;14.468;2023-06-22T08:54:38;11.98;;;7.25;;
81056;SDS011;70563;50.084;14.468;2023-06-22T08:57:03;7.18;;;6.47;;
81056;SDS011;70563;50.084;14.468;2023-06-22T08:59:29;12.18;;;6.65;;
81056;SDS011;70563;50.084;14.468;2023-06-22T09:01:54;10.70;;;6.45;;
81056;SDS011;70563;50.084;14.468;2023-06-22T09:04:20;10.02;;;6.63;;
81056;SDS011;70563;50.084;14.468;2023-06-22T09:06:48;7.55;;;6.38;;
81056;SDS011;70563;50.084;14.468;2023-06-22T09:09:15;8.85;;;6.20;;
81056;SDS011;70563;50.084;14.468;2023-06-22T09:11:41;9.45;;;6.88;;
81056;SDS011;70563;50.084;14.468;2023-06-22T09:14:07;7.38;;;6.13;;
81056;SDS011;70563;50.084;14.468;2023-06-22T09:16:33;10.40;;;6.18;;
81056;SDS011;70563;50.084;14.468;2023-06-22T09:18:59;7.03;;;5.75;;
81056;SDS011;70563;50.084;14.468;2023-06-22T09:21:24;10.20;;;6.53;;
81056;SDS011;70563;50.084;14.468;2023-06-22T09:23:50;12.98;;;6.75;;
81056;SDS011;70563;50.084;14.468;2023-06-22T09:26:19;7.95;;;6.70;;
81056;SDS011;70563;50.084;14.468;2023-06-22T09:28:44;7.38;;;6.60;;
81056;SDS011;70563;50.084;14.468;2023-06-22T09:31:10;6.85;;;6.18;;
81056;SDS011;70563;50.084;14.468;2023-06-22T09:33:36;9.35;;;6.05;;
81056;SDS011;70563;50.084;14.468;2023-06-22T09:36:03;8.43;;;6.15;;
81056;SDS011;70563;50.084;14.468;2023-06-22T09:38:30;6.85;;;6.15;;
81056;SDS011;70563;50.084;14.468;2023-06-22T09:40:55;8.85;;;6.35;;
81056;SDS011;70563;50.084;14.468;2023-06-22T09:43:21;10.32;;;6.25;;
81056;SDS011;70563;50.084;14.468;2023-06-22T09:45:46;7.30;;;6.28;;
81056;SDS011;70563;50.084;14.468;2023-06-22T09:48:11;8.13;;;6.10;;
81056;SDS011;70563;50.084;14.468;2023-06-22T09:50:37;7.65;;;6.82;;
81056;SDS011;70563;50.084;14.468;2023-06-22T09:53:02;8.77;;;6.05;;
81056;SDS011;70563;50.084;14.468;2023-06-22T09:55:28;8.00;;;6.57;;
81056;SDS011;70563;50.084;14.468;2023-06-22T09:57:53;9.95;;;7.25;;
81056;SDS011;70563;50.084;14.468;2023-06-22T10:00:20;7.68;;;6.40;;
81056;SDS011;70563;50.084;14.468;2023-06-22T10:02:46;10.02;;;7.72;;
81056;SDS011;70563;50.084;14.468;2023-06-22T10:05:12;7.10;;;6.20;;
81056;SDS011;70563;50.084;14.468;2023-06-22T10:07:37;8.35;;;6.38;;
81056;SDS011;70563;50.084;14.468;2023-06-22T10:10:08;7.47;;;6.80;;
81056;SDS011;70563;50.084;14.468;2023-06-22T10:12:34;11.05;;;7.00;;
81056;SDS011;70563;50.084;14.468;2023-06-22T10:15:00;7.53;;;6.82;;
81056;SDS011;70563;50.084;14.468;2023-06-22T10:17:25;8.27;;;7.47;;
81056;SDS011;70563;50.084;14.468;2023-06-22T10:19:51;7.93;;;6.50;;
81056;SDS011;70563;50.084;14.468;2023-06-22T10:22:16;9.02;;;6.57;;
81056;SDS011;70563;50.084;14.468;2023-06-22T10:24:41;8.32;;;6.10;;
81056;SDS011;70563;50.084;14.468;2023-06-22T10:27:11;9.93;;;7.28;;
81056;SDS011;70563;50.084;14.468;2023-06-22T10:29:37;8.82;;;7.93;;
81056;SDS011;70563;50.084;14.468;2023-06-22T10:32:02;7.95;;;6.18;;
81056;SDS011;70563;50.084;14.468;2023-06-22T10:34:28;9.50;;;6.60;;
81056;SDS011;70563;50.084;14.468;2023-06-22T10:36:53;7.85;;;6.35;;
81056;SDS011;70563;50.084;14.468;2023-06-22T10:39:19;9.57;;;6.47;;
81056;SDS011;70563;50.084;14.468;2023-06-22T10:41:44;8.60;;;6.70;;
81056;SDS011;70563;50.084;14.468;2023-06-22T10:44:10;11.90;;;6.68;;
81056;SDS011;70563;50.084;14.468;2023-06-22T10:46:35;9.13;;;6.35;;
81056;SDS011;70563;50.084;14.468;2023-06-22T10:49:01;6.90;;;6.22;;
81056;SDS011;70563;50.084;14.468;2023-06-22T10:51:26;8.05;;;6.50;;
81056;SDS011;70563;50.084;14.468;2023-06-22T10:53:53;7.82;;;6.22;;
81056;SDS011;70563;50.084;14.468;2023-06-22T10:56:18;7.13;;;6.25;;
81056;SDS011;70563;50.084;14.468;2023-06-22T10:58:44;9.00;;;6.53;;
81056;SDS011;70563;50.084;14.468;2023-06-22T11:01:10;7.65;;;6.88;;
81056;SDS011;70563;50.084;14.468;2023-06-22T11:03:36;6.95;;;6.30;;
81056;SDS011;70563;50.084;14.468;2023-06-22T11:06:01;7.95;;;6.05;;
81056;SDS011;70563;50.084;14.468;2023-06-22T11:08:27;8.18;;;7.35;;
81056;SDS011;70563;50.084;14.468;2023-06-22T11:10:52;9.60;;;6.80;;
81056;SDS011;70563;50.084;14.468;2023-06-22T11:13:18;7.10;;;6.30;;
81056;SDS011;70563;50.084;14.468;2023-06-22T11:15:43;8.45;;;6.47;;
81056;SDS011;70563;50.084;14.468;2023-06-22T11:18:08;9.30;;;6.35;;
81056;SDS011;70563;50.084;14.468;2023-06-22T11:20:34;7.47;;;5.93;;
81056;SDS011;70563;50.084;14.468;2023-06-22T11:25:28;6.70;;;6.10;;
81056;SDS011;70563;50.084;14.468;2023-06-22T11:27:54;7.82;;;6.13;;
81056;SDS011;70563;50.084;14.468;2023-06-22T11:30:19;12.02;;;7.13;;
81056;SDS011;70563;50.084;14.468;2023-06-22T11:32:45;8.15;;;6.63;;
81056;SDS011;70563;50.084;14.468;2023-06-22T11:35:10;11.00;;;6.57;;
81056;SDS011;70563;50.084;14.468;2023-06-22T11:37:35;7.10;;;6.40;;
81056;SDS011;70563;50.084;14.468;2023-06-22T11:40:01;8.90;;;6.30;;
81056;SDS011;70563;50.084;14.468;2023-06-22T11:42:29;8.20;;;7.18;;
81056;SDS011;70563;50.084;14.468;2023-06-22T11:44:55;11.32;;;7.18;;
81056;SDS011;70563;50.084;14.468;2023-06-22T11:47:20;10.00;;;6.75;;
81056;SDS011;70563;50.084;14.468;2023-06-22T11:49:46;7.45;;;6.47;;
81056;SDS011;70563;50.084;14.468;2023-06-22T11:52:11;8.55;;;7.13;;
81056;SDS011;70563;50.084;14.468;2023-06-22T11:54:37;8.02;;;6.95;;
81056;SDS011;70563;50.084;14.468;2023-06-22T11:57:03;9.48;;;6.82;;
81056;SDS011;70563;50.084;14.468;2023-06-22T11:59:29;8.57;;;7.25;;
81056;SDS011;70563;50.084;14.468;2023-06-22T12:01:54;7.35;;;6.65;;
81056;SDS011;70563;50.084;14.468;2023-06-22T12:04:20;8.13;;;7.32;;
81056;SDS011;70563;50.084;14.468;2023-06-22T12:06:45;8.40;;;6.75;;
81056;SDS011;70563;50.084;14.468;2023-06-22T12:09:11;7.53;;;6.82;;
81056;SDS011;70563;50.084;14.468;2023-06-22T12:11:38;10.60;;;7.20;;
81056;SDS011;70563;50.084;14.468;2023-06-22T12:14:04;8.38;;;6.93;;
81056;SDS011;70563;50.084;14.468;2023-06-22T12:16:29;11.93;;;7.30;;
81056;SDS011;70563;50.084;14.468;2023-06-22T12:18:55;9.18;;;7.40;;
81056;SDS011;70563;50.084;14.468;2023-06-22T12:21:20;10.85;;;6.85;;
81056;SDS011;70563;50.084;14.468;2023-06-22T12:23:45;9.00;;;7.07;;
81056;SDS011;70563;50.084;14.468;2023-06-22T12:26:11;7.43;;;6.28;;
81056;SDS011;70563;50.084;14.468;2023-06-22T12:28:36;8.93;;;7.72;;
81056;SDS011;70563;50.084;14.468;2023-06-22T12:31:01;10.07;;;7.15;;
81056;SDS011;70563;50.084;14.468;2023-06-22T12:33:27;8.63;;;6.13;;
81056;SDS011;70563;50.084;14.468;2023-06-22T12:35:52;7.15;;;6.10;;
81056;SDS011;70563;50.084;14.468;2023-06-22T12:38:18;9.93;;;5.97;;
81056;SDS011;70563;50.084;14.468;2023-06-22T12:40:43;10.32;;;6.15;;
81056;SDS011;70563;50.084;14.468;2023-06-22T12:43:08;9.50;;;6.05;;
81056;SDS011;70563;50.084;14.468;2023-06-22T12:45:34;5.88;;;4.80;;
81056;SDS011;70563;50.084;14.468;2023-06-22T12:48:00;9.70;;;5.85;;
81056;SDS011;70563;50.084;14.468;2023-06-22T12:50:25;10.48;;;5.45;;
81056;SDS011;70563;50.084;14.468;2023-06-22T12:52:51;10.65;;;5.70;;
81056;SDS011;70563;50.084;14.468;2023-06-22T12:55:16;8.18;;;5.43;;
81056;SDS011;70563;50.084;14.468;2023-06-22T12:57:42;9.48;;;5.53;;
81056;SDS011;70563;50.084;14.468;2023-06-22T13:00:07;5.78;;;4.90;;
81056;SDS011;70563;50.084;14.468;2023-06-22T13:02:35;9.52;;;5.53;;
81056;SDS011;70563;50.084;14.468;2023-06-22T13:05:02;8.48;;;5.72;;
81056;SDS011;70563;50.084;14.468;2023-06-22T13:09:55;9.17;;;5.80;;
81056;SDS011;70563;50.084;14.468;2023-06-22T13:12:20;9.00;;;5.32;;
81056;SDS011;70563;50.084;14.468;2023-06-22T13:14:46;5.32;;;4.82;;
81056;SDS011;70563;50.084;14.468;2023-06-22T13:17:13;10.52;;;5.70;;
81056;SDS011;70563;50.084;14.468;2023-06-22T13:19:39;8.32;;;6.05;;
81056;SDS011;70563;50.084;14.468;2023-06-22T13:22:04;9.05;;;6.57;;
81056;SDS011;70563;50.084;14.468;2023-06-22T13:24:30;8.98;;;6.00;;
81056;SDS011;70563;50.084;14.468;2023-06-22T13:26:56;7.90;;;5.72;;
81056;SDS011;70563;50.084;14.468;2023-06-22T13:29:21;8.90;;;6.20;;
81056;SDS011;70563;50.084;14.468;2023-06-22T13:31:46;10.25;;;5.95;;
81056;SDS011;70563;50.084;14.468;2023-06-22T13:34:12;8.52;;;5.80;;
81056;SDS011;70563;50.084;14.468;2023-06-22T13:36:37;10.90;;;6.22;;
81056;SDS011;70563;50.084;14.468;2023-06-22T13:39:03;7.55;;;5.47;;
81056;SDS011;70563;50.084;14.468;2023-06-22T13:41:28;8.57;;;6.18;;
81056;SDS011;70563;50.084;14.468;2023-06-22T13:43:54;8.82;;;5.93;;
81056;SDS011;70563;50.084;14.468;2023-06-22T13:46:19;7.93;;;6.28;;
81056;SDS011;70563;50.084;14.468;2023-06-22T13:48:45;9.10;;;6.45;;
81056;SDS011;70563;50.084;14.468;2023-06-22T13:51:10;7.05;;;6.15;;
81056;SDS011;70563;50.084;14.468;2023-06-22T13:53:35;8.15;;;6.20;;
81056;SDS011;70563;50.084;14.468;2023-06-22T13:56:01;11.65;;;6.15;;
81056;SDS011;70563;50.084;14.468;2023-06-22T13:58:26;8.43;;;5.88;;
81056;SDS011;70563;50.084;14.468;2023-06-22T14:00:52;9.18;;;5.38;;
81056;SDS011;70563;50.084;14.468;2023-06-22T14:03:17;7.45;;;5.78;;
81056;SDS011;70563;50.084;14.468;2023-06-22T14:05:42;9.63;;;5.85;;
81056;SDS011;70563;50.084;14.468;2023-06-22T14:08:08;6.80;;;5.75;;
81056;SDS011;70563;50.084;14.468;2023-06-22T14:10:34;7.45;;;5.85;;
81056;SDS011;70563;50.084;14.468;2023-06-22T14:12:59;21.30;;;6.75;;
81056;SDS011;70563;50.084;14.468;2023-06-22T14:15:25;8.85;;;5.90;;
81056;SDS011;70563;50.084;14.468;2023-06-22T14:17:51;9.45;;;6.43;;
81056;SDS011;70563;50.084;14.468;2023-06-22T14:20:17;10.35;;;6.85;;
81056;SDS011;70563;50.084;14.468;2023-06-22T14:22:43;8.30;;;5.95;;
81056;SDS011;70563;50.084;14.468;2023-06-22T14:25:08;8.80;;;6.20;;
81056;SDS011;70563;50.084;14.468;2023-06-22T14:27:33;7.65;;;5.93;;
81056;SDS011;70563;50.084;14.468;2023-06-22T14:29:59;15.60;;;7.05;;
81056;SDS011;70563;50.084;14.468;2023-06-22T14:32:24;10.07;;;6.38;;
81056;SDS011;70563;50.084;14.468;2023-06-22T14:34:50;7.97;;;6.22;;